Time;durP1;ratioP1;P1;durP2;ratioP2;P2;SDS_P1;SDS_P2;PMS_P1;PMS_P2;Temp;Humidity;BMP_temperature;BMP_pressure;BME280_temperature;BME280_humidity;BME280_pressure;Samples;Min_cycle;Max_cycle;Signal;HPM_P1;HPM_P2
2023/03/04 00:00:07;;;;;;;1.55;0.60;;;;;;;26.96;23.71;100625.16;5067747;28;20464;-59
2023/03/04 00:02:33;;;;;;;0.60;0.50;;;;;;;27.06;23.52;100644.31;5068781;28;20530;-60
2023/03/04 00:04:58;;;;;;;1.13;0.60;;;;;;;27.02;23.39;100629.47;5070077;28;20036;-59
2023/03/04 00:07:24;;;;;;;3.65;0.57;;;;;;;27.02;23.21;100635.81;5069448;28;20048;-59
2023/03/04 00:09:49;;;;;;;0.82;0.55;;;;;;;26.97;23.18;100643.34;5067998;28;20448;-59
2023/03/04 00:12:14;;;;;;;0.98;0.50;;;;;;;26.92;22.85;100624.94;5070903;28;20029;-61
2023/03/04 00:14:41;;;;;;;1.38;0.50;;;;;;;27.04;22.24;100641.84;5068919;28;20090;-60
2023/03/04 00:17:07;;;;;;;1.27;0.60;;;;;;;27.12;22.52;100648.59;5068002;28;20494;-61
2023/03/04 00:19:33;;;;;;;0.65;0.40;;;;;;;27.08;22.30;100650.34;5068995;28;20079;-57
2023/03/04 00:21:59;;;;;;;1.45;0.40;;;;;;;27.07;22.37;100656.97;5070833;28;20040;-55
2023/03/04 00:24:24;;;;;;;0.80;0.60;;;;;;;27.11;21.84;100648.91;5070280;28;20032;-57
2023/03/04 00:26:50;;;;;;;0.52;0.50;;;;;;;26.81;21.89;100618.75;5068650;28;20107;-61
2023/03/04 00:29:15;;;;;;;2.50;0.30;;;;;;;27.10;22.01;100659.13;5071599;28;20463;-59
2023/03/04 00:31:41;;;;;;;0.50;0.50;;;;;;;27.16;21.87;100660.66;5069828;28;20028;-62
2023/03/04 00:34:06;;;;;;;0.60;0.35;;;;;;;27.00;21.70;100664.78;5068553;28;20043;-54
2023/03/04 00:36:31;;;;;;;0.60;0.30;;;;;;;27.00;21.71;100660.06;5068240;28;20364;-58
2023/03/04 00:38:57;;;;;;;0.70;0.50;;;;;;;27.10;21.67;100659.13;5068158;28;20035;-58
2023/03/04 00:41:22;;;;;;;0.63;0.52;;;;;;;27.03;21.52;100662.25;5070333;28;20660;-67
2023/03/04 00:43:47;;;;;;;0.52;0.43;;;;;;;27.03;21.36;100665.00;5067747;28;20046;-66
2023/03/04 00:46:13;;;;;;;0.30;0.30;;;;;;;26.97;21.22;100673.66;5067524;28;20353;-66
2023/03/04 00:48:38;;;;;;;3.72;0.40;;;;;;;26.77;21.21;100663.75;5069926;28;20081;-66
2023/03/04 00:51:04;;;;;;;0.47;0.35;;;;;;;26.75;21.06;100661.28;5070047;28;20037;-65
2023/03/04 00:53:29;;;;;;;0.75;0.30;;;;;;;26.84;20.91;100684.31;5069848;28;20044;-64
2023/03/04 00:55:55;;;;;;;1.52;0.30;;;;;;;26.77;20.72;100683.84;5070289;28;20107;-64
2023/03/04 00:58:20;;;;;;;0.30;0.30;;;;;;;26.69;20.57;100675.44;5070682;28;20584;-65
2023/03/04 01:00:46;;;;;;;4.45;0.35;;;;;;;26.71;20.84;100698.84;5070441;28;20024;-65
2023/03/04 01:03:11;;;;;;;1.58;0.40;;;;;;;26.60;20.53;100673.34;5070165;28;20039;-64
2023/03/04 01:05:37;;;;;;;0.93;0.32;;;;;;;26.51;20.74;100663.28;5072886;28;20037;-64
2023/03/04 01:08:02;;;;;;;0.63;0.40;;;;;;;26.67;20.69;100699.72;5074791;28;20029;-64
2023/03/04 01:10:28;;;;;;;0.73;0.30;;;;;;;26.69;20.51;100689.22;5073535;28;20025;-64
2023/03/04 01:12:53;;;;;;;0.35;0.30;;;;;;;26.68;20.67;100706.88;5073583;28;20051;-64
2023/03/04 01:15:19;;;;;;;0.30;0.30;;;;;;;26.52;20.46;100696.00;5073907;28;20032;-65
2023/03/04 01:17:44;;;;;;;1.02;0.30;;;;;;;26.61;20.36;100712.72;5074143;28;20029;-64
2023/03/04 01:20:10;;;;;;;0.50;0.40;;;;;;;26.59;20.40;100715.75;5075026;28;20024;-65
2023/03/04 01:22:36;;;;;;;0.20;0.20;;;;;;;26.68;20.45;100718.69;5072841;28;20048;-65
2023/03/04 01:25:03;;;;;;;0.20;0.20;;;;;;;26.59;20.27;100726.75;5072937;28;20039;-65
2023/03/04 01:27:28;;;;;;;0.95;0.30;;;;;;;26.62;20.36;100719.91;5073774;28;20429;-65
2023/03/04 01:29:53;;;;;;;0.30;0.30;;;;;;;26.58;20.44;100722.38;5072574;28;20117;-65
2023/03/04 01:32:19;;;;;;;0.20;0.20;;;;;;;26.58;20.13;100725.13;5072473;28;20028;-65
2023/03/04 01:34:44;;;;;;;0.40;0.20;;;;;;;26.54;20.39;100723.25;5071324;28;20503;-65
2023/03/04 01:37:12;;;;;;;0.45;0.30;;;;;;;26.57;20.33;100736.44;5070862;28;20365;-65
2023/03/04 01:39:37;;;;;;;1.00;0.45;;;;;;;26.60;20.23;100730.41;5072944;28;20087;-64
2023/03/04 01:42:03;;;;;;;0.35;0.20;;;;;;;26.44;19.92;100715.94;5074249;28;20602;-64
2023/03/04 01:44:28;;;;;;;0.28;0.28;;;;;;;26.44;20.08;100729.72;5073692;28;20115;-65
2023/03/04 01:46:54;;;;;;;0.35;0.30;;;;;;;26.50;20.01;100753.31;5073490;28;20063;-65
2023/03/04 01:49:21;;;;;;;0.43;0.38;;;;;;;26.36;20.11;100747.72;5072814;28;20032;-66
2023/03/04 01:51:51;;;;;;;0.20;0.20;;;;;;;26.45;20.02;100758.91;5073621;28;20028;-65
2023/03/04 01:54:17;;;;;;;0.47;0.30;;;;;;;26.36;20.01;100767.00;5072907;28;20024;-65
2023/03/04 01:56:45;;;;;;;0.30;0.28;;;;;;;26.33;19.95;100748.28;5073563;28;20028;-65
2023/03/04 01:59:12;;;;;;;1.48;0.28;;;;;;;26.36;19.98;100767.00;5072562;28;20028;-65
2023/03/04 02:01:39;;;;;;;0.47;0.10;;;;;;;26.39;19.92;100766.41;5073379;28;20063;-65
2023/03/04 02:04:06;;;;;;;0.25;0.20;;;;;;;26.26;19.90;100762.41;5072838;28;20040;-65
2023/03/04 02:06:32;;;;;;;0.38;0.30;;;;;;;26.32;19.96;100770.59;5072701;28;20072;-65
2023/03/04 02:08:58;;;;;;;0.40;0.20;;;;;;;26.28;19.73;100762.13;5073511;28;20420;-65
2023/03/04 02:11:23;;;;;;;0.50;0.30;;;;;;;26.27;19.60;100758.53;5072576;28;20077;-65
2023/03/04 02:13:50;;;;;;;0.30;0.30;;;;;;;26.22;19.75;100772.34;5072288;28;20043;-65
2023/03/04 02:16:15;;;;;;;0.52;0.30;;;;;;;26.19;19.85;100769.38;5072934;28;20465;-65
2023/03/04 02:18:41;;;;;;;0.25;0.25;;;;;;;26.12;20.09;100755.97;5072851;28;20059;-65
2023/03/04 02:21:12;;;;;;;0.47;0.40;;;;;;;26.24;19.86;100783.09;5072676;28;20758;-65
2023/03/04 02:23:54;;;;;;;0.77;0.40;;;;;;;26.28;19.79;100789.66;5071861;28;20039;-65
2023/03/04 02:26:22;;;;;;;0.40;0.30;;;;;;;26.22;19.71;100782.56;5072425;28;20032;-65
2023/03/04 02:28:50;;;;;;;0.22;0.22;;;;;;;26.14;19.62;100777.69;5071503;28;20401;-65
2023/03/04 02:31:35;;;;;;;0.32;0.30;;;;;;;26.22;20.10;100785.31;5071298;28;20071;-65
2023/03/04 02:34:04;;;;;;;0.20;0.20;;;;;;;26.22;19.81;100810.09;5072668;28;20032;-65
2023/03/04 02:36:30;;;;;;;0.28;0.28;;;;;;;26.20;19.77;100796.59;5072353;28;20024;-65
2023/03/04 02:39:02;;;;;;;0.15;0.15;;;;;;;26.19;19.76;100796.91;5072591;28;20024;-65
2023/03/04 02:41:29;;;;;;;0.20;0.20;;;;;;;26.08;19.61;100797.00;5072619;28;20063;-65
2023/03/04 02:43:55;;;;;;;0.75;0.30;;;;;;;26.20;19.48;100802.09;5072134;28;20075;-65
2023/03/04 02:46:21;;;;;;;0.30;0.30;;;;;;;26.20;19.65;100798.53;5072437;28;20029;-66
2023/03/04 02:48:47;;;;;;;0.20;0.20;;;;;;;26.25;19.65;100799.31;5072664;28;20028;-65
2023/03/04 02:51:13;;;;;;;0.30;0.25;;;;;;;26.19;19.56;100794.97;5072381;28;20028;-65
2023/03/04 02:53:38;;;;;;;0.20;0.20;;;;;;;26.14;19.50;100792.28;5072788;28;20070;-66
2023/03/04 02:56:04;;;;;;;0.40;0.30;;;;;;;26.21;19.44;100805.72;5071926;28;20394;-65
2023/03/04 02:58:29;;;;;;;0.40;0.20;;;;;;;26.21;19.53;100812.03;5072781;28;20052;-65
2023/03/04 03:00:56;;;;;;;0.52;0.35;;;;;;;26.21;19.34;100819.47;5071982;28;20102;-66
2023/03/04 03:03:21;;;;;;;0.65;0.20;;;;;;;26.06;19.36;100810.25;5072350;28;20032;-65
2023/03/04 03:05:47;;;;;;;0.13;0.10;;;;;;;26.24;19.33;100822.47;5071521;28;20047;-65
2023/03/04 03:08:12;;;;;;;0.93;0.40;;;;;;;26.20;19.55;100820.56;5072047;28;20056;-65
2023/03/04 03:10:40;;;;;;;0.30;0.30;;;;;;;26.23;19.49;100822.75;5072145;28;20533;-65
2023/03/04 03:13:05;;;;;;;0.45;0.38;;;;;;;26.32;19.54;100836.69;5071842;28;20032;-65
2023/03/04 03:15:31;;;;;;;0.20;0.20;;;;;;;26.22;19.33;100823.84;5072220;28;20032;-65
2023/03/04 03:17:57;;;;;;;0.25;0.20;;;;;;;26.25;19.51;100842.56;5072226;28;20500;-65
2023/03/04 03:20:22;;;;;;;0.20;0.20;;;;;;;26.36;19.34;100848.78;5072348;28;20029;-65
2023/03/04 03:22:47;;;;;;;0.20;0.20;;;;;;;26.28;19.18;100853.00;5070935;28;20465;-65
2023/03/04 03:25:15;;;;;;;0.25;0.20;;;;;;;26.21;19.49;100842.31;5071603;28;20039;-66
2023/03/04 03:27:40;;;;;;;0.30;0.30;;;;;;;26.19;19.17;100840.97;5071163;28;20073;-65
2023/03/04 03:30:10;;;;;;;0.28;0.17;;;;;;;26.21;19.58;100855.25;5072152;28;20107;-65
2023/03/04 03:32:36;;;;;;;1.55;0.20;;;;;;;26.15;19.37;100837.13;5070810;28;20488;-65
2023/03/04 03:35:02;;;;;;;0.20;0.20;;;;;;;26.24;19.31;100857.41;5071748;28;20040;-65
2023/03/04 03:37:27;;;;;;;0.20;0.20;;;;;;;25.97;19.40;100833.19;5071395;28;20025;-65
2023/03/04 03:39:52;;;;;;;0.28;0.20;;;;;;;26.09;19.40;100852.88;5071957;28;20063;-65
2023/03/04 03:42:18;;;;;;;0.30;0.30;;;;;;;26.18;19.37;100858.59;5071245;28;20579;-66
2023/03/04 03:44:43;;;;;;;0.20;0.20;;;;;;;26.05;19.18;100863.63;5071832;28;20040;-66
2023/03/04 03:47:11;;;;;;;0.17;0.17;;;;;;;26.02;19.37;100844.13;5071300;28;20145;-66
2023/03/04 03:49:36;;;;;;;0.35;0.20;;;;;;;26.19;19.38;100874.00;5071629;28;20121;-66
2023/03/04 03:52:02;;;;;;;0.20;0.20;;;;;;;26.16;19.34;100875.38;5071456;28;20039;-66
2023/03/04 03:54:27;;;;;;;0.40;0.20;;;;;;;26.14;19.12;100871.28;5071505;28;20487;-66
2023/03/04 03:56:52;;;;;;;0.15;0.15;;;;;;;26.10;19.18;100871.03;5070118;28;20024;-65
2023/03/04 03:59:18;;;;;;;0.17;0.15;;;;;;;26.08;19.42;100862.25;5071789;28;20179;-66
2023/03/04 04:01:43;;;;;;;0.20;0.20;;;;;;;25.91;19.31;100854.38;5071072;28;20090;-66
2023/03/04 04:04:08;;;;;;;0.28;0.28;;;;;;;25.96;19.62;100861.78;5071237;28;20107;-66
2023/03/04 04:06:34;;;;;;;0.25;0.20;;;;;;;25.96;19.27;100870.06;5070760;28;20044;-66
2023/03/04 04:08:59;;;;;;;0.40;0.20;;;;;;;25.93;19.19;100846.69;5071463;28;20032;-66
2023/03/04 04:11:25;;;;;;;0.05;0.05;;;;;;;25.96;19.51;100870.88;5070759;28;20044;-66
2023/03/04 04:13:50;;;;;;;0.20;0.20;;;;;;;25.95;19.17;100876.69;5070530;28;20047;-66
2023/03/04 04:16:16;;;;;;;0.20;0.20;;;;;;;25.78;19.77;100838.50;5070959;28;20056;-66
2023/03/04 04:18:42;;;;;;;0.20;0.20;;;;;;;25.83;19.33;100853.03;5070962;28;20032;-65
2023/03/04 04:21:08;;;;;;;0.30;0.20;;;;;;;25.93;19.16;100884.38;5071522;28;20036;-66
2023/03/04 04:23:33;;;;;;;0.20;0.20;;;;;;;25.93;19.27;100867.88;5070143;28;20068;-66
2023/03/04 04:26:00;;;;;;;0.10;0.10;;;;;;;26.00;19.10;100868.34;5070842;28;20101;-66
2023/03/04 04:28:25;;;;;;;0.60;0.20;;;;;;;25.90;19.18;100877.50;5071180;28;20490;-66
2023/03/04 04:30:51;;;;;;;0.65;0.20;;;;;;;25.92;19.36;100882.72;5070761;28;20044;-66
2023/03/04 04:33:17;;;;;;;0.20;0.10;;;;;;;25.72;19.35;100873.47;5070691;28;20505;-66
2023/03/04 04:35:43;;;;;;;0.30;0.30;;;;;;;25.80;19.19;100874.84;5070797;28;20044;-66
2023/03/04 04:38:09;;;;;;;0.22;0.20;;;;;;;25.89;19.29;100893.19;5072813;28;20469;-66
2023/03/04 04:40:34;;;;;;;0.20;0.20;;;;;;;25.88;19.32;100879.72;5074449;28;20127;-66
2023/03/04 04:43:04;;;;;;;0.20;0.20;;;;;;;25.92;19.04;100880.81;5073882;28;20036;-65
2023/03/04 04:45:30;;;;;;;0.10;0.10;;;;;;;25.84;19.37;100882.22;5074370;28;20029;-65
2023/03/04 04:47:56;;;;;;;0.40;0.20;;;;;;;25.91;19.18;100892.06;5074891;28;20031;-65
2023/03/04 04:50:25;;;;;;;0.63;0.20;;;;;;;25.89;19.15;100890.44;5074728;28;20039;-65
2023/03/04 04:52:51;;;;;;;0.30;0.20;;;;;;;25.74;19.28;100879.53;5073840;28;20024;-66
2023/03/04 04:55:17;;;;;;;0.40;0.30;;;;;;;25.76;19.08;100868.22;5074341;28;20029;-66
2023/03/04 04:57:42;;;;;;;0.20;0.20;;;;;;;25.75;19.37;100894.13;5074309;28;20112;-66
2023/03/04 05:00:09;;;;;;;0.17;0.10;;;;;;;25.78;19.36;100894.38;5073989;28;20032;-66
2023/03/04 05:02:36;;;;;;;0.10;0.10;;;;;;;25.75;19.07;100902.38;5075056;28;20059;-66
2023/03/04 05:05:06;;;;;;;0.95;0.25;;;;;;;25.80;19.04;100899.59;5076785;28;20029;-66
2023/03/04 05:07:32;;;;;;;0.17;0.10;;;;;;;25.82;19.44;100902.88;5076105;28;20422;-65
2023/03/04 05:09:57;;;;;;;0.20;0.20;;;;;;;25.76;19.28;100904.00;5073441;28;20455;-65
2023/03/04 05:12:22;;;;;;;0.25;0.22;;;;;;;25.78;19.31;100899.03;5074324;28;20060;-65
2023/03/04 05:14:48;;;;;;;0.30;0.20;;;;;;;25.69;18.88;100899.66;5074429;28;20082;-65
2023/03/04 05:17:13;;;;;;;0.10;0.10;;;;;;;25.74;19.36;100911.72;5074394;28;20052;-66
2023/03/04 05:19:39;;;;;;;0.20;0.20;;;;;;;25.68;19.17;100900.75;5073557;28;20032;-65
2023/03/04 05:22:04;;;;;;;0.10;0.10;;;;;;;25.75;19.28;100905.13;5074513;28;20036;-66
2023/03/04 05:24:29;;;;;;;0.20;0.20;;;;;;;25.71;19.42;100895.81;5073658;28;20601;-66
2023/03/04 05:26:55;;;;;;;1.55;0.20;;;;;;;25.73;18.93;100891.66;5073389;28;20064;-66
2023/03/04 05:29:20;;;;;;;0.10;0.10;;;;;;;25.72;18.82;100900.19;5072651;28;20033;-66
2023/03/04 05:31:46;;;;;;;0.20;0.20;;;;;;;25.66;19.30;100902.97;5073572;28;20081;-66
2023/03/04 05:34:11;;;;;;;0.13;0.13;;;;;;;25.66;19.09;100902.97;5073953;28;20036;-66
2023/03/04 05:36:37;;;;;;;0.10;0.10;;;;;;;25.65;18.93;100901.34;5073559;28;20029;-65
2023/03/04 05:39:02;;;;;;;0.38;0.10;;;;;;;25.72;18.97;100908.44;5073256;28;20024;-65
2023/03/04 05:41:28;;;;;;;0.10;0.10;;;;;;;25.68;19.00;100909.00;5073978;28;20036;-66
2023/03/04 05:43:53;;;;;;;0.20;0.10;;;;;;;25.66;18.98;100908.47;5073294;28;20148;-66
2023/03/04 05:46:24;;;;;;;0.28;0.10;;;;;;;25.57;19.17;100912.91;5073053;28;20029;-65
2023/03/04 05:48:50;;;;;;;0.20;0.20;;;;;;;25.63;18.94;100925.56;5072067;28;20032;-65
2023/03/04 05:51:15;;;;;;;0.00;0.00;;;;;;;25.63;19.14;100898.03;5073560;28;20081;-65
2023/03/04 05:53:41;;;;;;;0.08;0.08;;;;;;;25.60;19.26;100911.53;5073312;28;20108;-65
2023/03/04 05:56:09;;;;;;;0.10;0.10;;;;;;;25.60;18.88;100926.09;5073421;28;20036;-65
2023/03/04 05:58:34;;;;;;;0.10;0.00;;;;;;;25.65;19.00;100922.53;5072229;28;20069;-65
2023/03/04 06:01:00;;;;;;;0.10;0.10;;;;;;;25.51;18.98;100925.06;5073577;28;20028;-66
2023/03/04 06:03:25;;;;;;;0.22;0.22;;;;;;;25.54;19.07;100931.91;5073022;28;20044;-65
2023/03/04 06:05:50;;;;;;;0.13;0.13;;;;;;;25.47;19.19;100926.72;5073486;28;20082;-65
2023/03/04 06:08:16;;;;;;;0.10;0.10;;;;;;;25.44;18.97;100927.28;5073805;28;20021;-65
2023/03/04 06:10:41;;;;;;;0.10;0.10;;;;;;;25.44;19.34;100932.78;5073443;28;20457;-65
2023/03/04 06:13:08;;;;;;;0.38;0.10;;;;;;;25.46;19.32;100930.56;5073125;28;20043;-65
2023/03/04 06:15:33;;;;;;;0.20;0.20;;;;;;;25.42;19.27;100929.50;5073287;28;20024;-65
2023/03/04 06:17:58;;;;;;;0.28;0.10;;;;;;;25.38;19.17;100922.91;5073176;28;20033;-66
2023/03/04 06:20:24;;;;;;;0.10;0.10;;;;;;;25.48;19.08;100918.22;5073842;28;20500;-66
2023/03/04 06:22:49;;;;;;;0.65;0.10;;;;;;;25.36;18.95;100916.88;5072645;28;20045;-65
2023/03/04 06:25:15;;;;;;;0.17;0.10;;;;;;;25.47;18.87;100919.28;5072717;28;20150;-65
2023/03/04 06:27:42;;;;;;;0.10;0.10;;;;;;;25.43;18.77;100911.91;5073084;28;20029;-65
2023/03/04 06:30:08;;;;;;;0.30;0.20;;;;;;;25.43;18.94;100920.97;5073401;28;20039;-65
2023/03/04 06:32:33;;;;;;;0.30;0.10;;;;;;;25.43;19.12;100895.41;5072527;28;20381;-65
2023/03/04 06:34:59;;;;;;;0.10;0.10;;;;;;;25.52;18.95;100899.22;5072527;28;20101;-66
2023/03/04 06:37:24;;;;;;;0.00;0.00;;;;;;;25.52;18.75;100914.88;5072752;28;20036;-65
2023/03/04 06:39:50;;;;;;;0.45;0.10;;;;;;;25.54;18.56;100908.00;5073138;28;20040;-65
2023/03/04 06:42:15;;;;;;;0.38;0.10;;;;;;;25.42;18.94;100916.56;5072837;28;20115;-66
2023/03/04 06:44:41;;;;;;;0.15;0.03;;;;;;;25.39;19.20;100919.91;5071808;28;20423;-65
2023/03/04 06:47:07;;;;;;;0.32;0.10;;;;;;;25.36;19.12;100920.44;5072875;28;20032;-65
2023/03/04 06:49:32;;;;;;;0.00;0.00;;;;;;;25.30;19.08;100907.84;5072433;28;20064;-65
2023/03/04 06:51:58;;;;;;;0.10;0.10;;;;;;;25.39;18.92;100922.66;5072023;28;20068;-65
2023/03/04 06:54:23;;;;;;;0.00;0.00;;;;;;;25.33;19.11;100934.75;5071772;28;20043;-65
2023/03/04 06:56:48;;;;;;;0.15;0.10;;;;;;;25.25;19.21;100910.59;5072507;28;20029;-65
2023/03/04 06:59:14;;;;;;;0.10;0.10;;;;;;;25.43;19.05;100928.41;5071684;28;20036;-65
2023/03/04 07:01:39;;;;;;;0.10;0.10;;;;;;;25.41;19.14;100928.69;5070717;28;20028;-65
2023/03/04 07:04:05;;;;;;;0.10;0.10;;;;;;;25.43;18.83;100931.16;5072009;28;20031;-65
2023/03/04 07:06:30;;;;;;;0.10;0.10;;;;;;;25.36;19.10;100936.94;5071049;28;20044;-65
2023/03/04 07:08:57;;;;;;;0.10;0.05;;;;;;;25.43;19.18;100934.72;5071828;28;20028;-65
2023/03/04 07:11:23;;;;;;;0.10;0.10;;;;;;;25.48;18.95;100940.22;5072614;28;20032;-65
2023/03/04 07:13:50;;;;;;;0.28;0.10;;;;;;;25.42;18.63;100944.06;5071784;28;20065;-65
2023/03/04 07:16:18;;;;;;;0.52;0.10;;;;;;;25.35;19.03;100934.47;5071158;28;20124;-65
2023/03/04 07:18:45;;;;;;;0.10;0.10;;;;;;;25.27;18.59;100911.97;5072325;28;20506;-65
2023/03/04 07:21:12;;;;;;;0.20;0.13;;;;;;;25.40;18.94;100934.47;5071099;28;20090;-65
2023/03/04 07:23:38;;;;;;;0.30;0.08;;;;;;;25.48;18.91;100945.72;5071439;28;20085;-65
2023/03/04 07:26:04;;;;;;;0.38;0.10;;;;;;;25.49;18.69;100950.09;5070710;28;20067;-65
2023/03/04 07:28:30;;;;;;;0.20;0.10;;;;;;;25.51;18.90;100958.06;5071663;28;20040;-65
2023/03/04 07:30:55;;;;;;;0.47;0.10;;;;;;;25.55;18.80;100964.63;5071794;28;20032;-65
2023/03/04 07:33:20;;;;;;;0.10;0.10;;;;;;;25.55;18.68;100970.13;5071882;28;20026;-65
2023/03/04 07:35:46;;;;;;;0.17;0.00;;;;;;;25.57;18.89;100964.34;5071770;28;20032;-65
2023/03/04 07:38:11;;;;;;;0.03;0.00;;;;;;;25.54;18.63;100967.66;5071838;28;20452;-65
2023/03/04 07:40:37;;;;;;;0.10;0.00;;;;;;;25.56;18.58;100971.78;5071456;28;20108;-65
2023/03/04 07:43:03;;;;;;;0.15;0.10;;;;;;;25.49;18.62;100965.78;5071707;28;20039;-65
2023/03/04 07:45:29;;;;;;;0.30;0.10;;;;;;;25.50;18.68;100975.66;5071429;28;20028;-65
2023/03/04 07:47:56;;;;;;;0.60;0.08;;;;;;;25.55;18.74;100972.88;5070928;28;20169;-66
2023/03/04 07:50:22;;;;;;;0.00;0.00;;;;;;;25.59;18.59;100973.97;5071234;28;20028;-66
2023/03/04 07:52:51;;;;;;;0.10;0.10;;;;;;;25.61;18.78;100966.28;5071681;28;20059;-65
2023/03/04 07:55:17;;;;;;;0.10;0.05;;;;;;;25.72;18.38;100978.03;5070906;28;20033;-65
2023/03/04 07:57:44;;;;;;;0.10;0.10;;;;;;;25.79;18.42;100983.22;5071530;28;20021;-65
2023/03/04 08:00:12;;;;;;;0.20;0.10;;;;;;;25.84;18.25;100978.53;5070318;28;20374;-66
2023/03/04 08:02:38;;;;;;;0.32;0.08;;;;;;;25.75;18.17;100982.16;5071465;28;20074;-65
2023/03/04 08:05:04;;;;;;;0.10;0.10;;;;;;;25.68;18.39;100997.03;5071080;28;20056;-65
2023/03/04 08:07:29;;;;;;;0.10;0.10;;;;;;;25.72;18.61;100980.78;5070480;28;20036;-66
2023/03/04 08:09:55;;;;;;;0.03;0.00;;;;;;;25.67;18.54;100969.81;5071470;28;20420;-66
2023/03/04 08:12:20;;;;;;;0.10;0.10;;;;;;;25.75;18.33;100979.41;5070710;28;20033;-66
2023/03/04 08:14:46;;;;;;;0.05;0.05;;;;;;;25.72;18.60;100971.72;5071005;28;20064;-66
2023/03/04 08:17:13;;;;;;;0.10;0.10;;;;;;;25.82;18.51;100979.94;5070249;28;20076;-66
2023/03/04 08:19:39;;;;;;;0.05;0.05;;;;;;;25.75;18.31;100973.91;5071614;28;20029;-66
2023/03/04 08:22:04;;;;;;;0.00;0.00;;;;;;;25.74;18.38;100972.25;5070990;28;20388;-66
2023/03/04 08:24:30;;;;;;;0.20;0.10;;;;;;;25.68;18.42;100974.19;5070801;28;20085;-66
2023/03/04 08:26:56;;;;;;;0.10;0.00;;;;;;;25.50;18.38;100949.00;5070819;28;20028;-67
2023/03/04 08:29:23;;;;;;;0.20;0.08;;;;;;;25.74;18.50;100975.00;5071241;28;20040;-66
2023/03/04 08:31:50;;;;;;;0.00;0.00;;;;;;;25.72;18.50;100971.72;5071042;28;20066;-67
2023/03/04 08:34:18;;;;;;;0.20;0.10;;;;;;;25.61;18.39;100969.03;5070642;28;20025;-67
2023/03/04 08:36:43;;;;;;;1.08;0.10;;;;;;;25.32;18.33;100941.38;5070822;28;20559;-67
2023/03/04 08:39:12;;;;;;;0.32;0.13;;;;;;;25.74;18.27;100991.50;5071009;28;20033;-67
2023/03/04 08:41:37;;;;;;;3.72;0.70;;;;;;;25.75;20.66;100954.66;5070656;28;20134;-67
2023/03/04 08:44:03;;;;;;;7.88;1.00;;;;;;;25.80;21.84;100979.41;5071069;28;20116;-68
2023/03/04 08:46:29;;;;;;;6.85;1.20;;;;;;;25.91;22.97;100971.88;5070873;28;20033;-67
2023/03/04 08:48:54;;;;;;;7.75;1.13;;;;;;;26.01;23.24;100991.94;5070427;28;20798;-67
2023/03/04 08:51:20;;;;;;;11.43;1.52;;;;;;;25.91;23.56;100977.38;5070615;28;20039;-67
2023/03/04 08:53:45;;;;;;;5.47;1.40;;;;;;;26.00;23.61;100989.47;5070300;28;20089;-67
2023/03/04 08:56:12;;;;;;;5.82;1.20;;;;;;;26.02;23.65;100990.00;5069921;28;20154;-67
2023/03/04 08:58:38;;;;;;;7.60;1.23;;;;;;;26.04;23.77;100985.06;5070043;28;20128;-67
2023/03/04 09:01:06;;;;;;;10.32;1.52;;;;;;;25.96;23.87;100986.47;5070761;28;20107;-67
2023/03/04 09:03:31;;;;;;;15.65;2.72;;;;;;;26.01;24.03;100980.13;5069916;28;20032;-67
2023/03/04 09:05:57;;;;;;;5.35;1.20;;;;;;;26.12;23.76;100995.47;5070720;28;20028;-67
2023/03/04 09:08:22;;;;;;;6.18;1.30;;;;;;;26.17;23.68;100980.81;5069786;28;20078;-67
2023/03/04 09:10:52;;;;;;;6.35;1.00;;;;;;;26.18;23.62;100977.78;5070789;28;20036;-67
2023/03/04 09:13:17;;;;;;;9.02;1.20;;;;;;;26.19;23.80;100987.72;5069565;28;20033;-67
2023/03/04 09:15:45;;;;;;;11.40;0.90;;;;;;;26.15;24.04;100985.78;5070893;28;20051;-69
2023/03/04 09:18:11;;;;;;;9.95;1.42;;;;;;;26.28;23.56;100985.19;5048037;28;20044;-64
2023/03/04 09:20:36;;;;;;;11.38;1.17;;;;;;;26.50;23.23;100992.16;5067188;28;20024;-66
2023/03/04 09:23:02;;;;;;;12.52;1.10;;;;;;;26.42;24.12;100985.34;5068943;28;20059;-70
2023/03/04 09:25:27;;;;;;;7.15;1.10;;;;;;;24.67;23.57;100991.50;5072864;28;20166;-65
2023/03/04 09:27:53;;;;;;;8.48;1.10;;;;;;;25.85;23.60;100988.44;5075636;28;20023;-66
2023/03/04 09:30:18;;;;;;;7.43;1.00;;;;;;;25.78;23.38;100943.06;5075422;28;20040;-67
2023/03/04 09:32:44;;;;;;;12.48;1.20;;;;;;;26.07;23.06;100963.25;5075805;28;20032;-67
2023/03/04 09:35:09;;;;;;;12.40;1.27;;;;;;;26.11;23.03;100960.75;5074629;28;20059;-66
2023/03/04 09:37:35;;;;;;;6.18;0.93;;;;;;;26.26;22.91;100979.94;5073300;28;20036;-66
2023/03/04 09:40:01;;;;;;;6.30;0.80;;;;;;;26.22;22.95;100987.13;5073428;28;20071;-66
2023/03/04 09:42:36;;;;;;;15.05;1.30;;;;;;;25.89;22.88;100945.47;5073982;28;20128;-66
2023/03/04 09:45:04;;;;;;;9.32;0.60;;;;;;;26.18;22.52;100961.25;5073300;28;20032;-66
2023/03/04 09:47:33;;;;;;;7.43;0.80;;;;;;;26.35;22.51;100979.31;5073174;28;20032;-66
2023/03/04 09:50:03;;;;;;;5.88;1.10;;;;;;;26.36;22.33;100969.97;5073824;28;20047;-66
2023/03/04 09:52:49;;;;;;;12.50;1.02;;;;;;;26.36;22.43;100979.03;5073343;28;20028;-66
2023/03/04 09:55:30;;;;;;;3.67;0.70;;;;;;;26.43;22.32;100976.78;5072347;28;20036;-66
